Time;durP1;ratioP1;P1;durP2;ratioP2;P2;SDS_P1;SDS_P2;PMS_P1;PMS_P2;Temp;Humidity;BMP_temperature;BMP_pressure;BME280_temperature;BME280_humidity;BME280_pressure;Samples;Min_cycle;Max_cycle;Signal;HPM_P1;HPM_P2
2022/01/17 00:00:56;;;;;;;19.37;3.10;;;5.60;99.90;;;;;;5030266;28;20197;-82
2022/01/17 00:03:24;;;;;;;21.43;3.07;;;5.60;99.90;;;;;;5016713;28;20170;-81
2022/01/17 00:10:53;;;;;;;;;;;;;;;;;;;;;
2022/01/17 00:19:41;;;;;;;20.67;3.60;;;5.60;99.90;;;;;;5050044;28;20214;-81
2022/01/17 00:24:24;;;;;;;;;;;;;;;;;;;;;
2022/01/17 00:30:09;;;;;;;19.00;3.30;;;5.70;99.90;;;;;;4880717;29;20194;-82
2022/01/17 00:33:42;;;;;;;;;;;;;;;;;;;;;
2022/01/17 00:56:08;;;;;;;15.23;2.93;;;5.80;99.90;;;;;;5045983;28;20311;-82
2022/01/17 00:59:18;;;;;;;19.43;3.63;;;5.90;99.90;;;;;;4949493;28;20182;-82
2022/01/17 01:02:52;;;;;;;20.13;3.77;;;5.90;99.90;;;;;;4974814;28;20200;-80
2022/01/17 01:19:08;;;;;;;14.57;2.97;;;6.00;99.90;;;;;;5070201;28;20268;-82
2022/01/17 01:29:22;;;;;;;19.17;3.10;;;6.10;99.90;;;;;;5003536;28;20265;-82
2022/01/17 01:32:44;;;;;;;13.87;2.80;;;6.00;99.90;;;;;;5037852;28;20182;-81
2022/01/17 02:01:59;;;;;;;11.27;2.50;;;6.20;99.90;;;;;;4873961;29;20198;-82
2022/01/17 02:05:50;;;;;;;;;;;;;;;;;;;;;
2022/01/17 02:13:41;;;;;;;15.83;2.27;;;6.20;99.90;;;;;;4992103;28;20207;-81
2022/01/17 02:27:13;;;;;;;18.60;3.13;;;6.20;99.90;;;;;;5053097;23;20276;-81
2022/01/17 02:30:42;;;;;;;;;;;;;;;;;;;;;
2022/01/17 02:34:09;;;;;;;;;;;;;;;;;;;;;
2022/01/17 02:36:45;;;;;;;13.27;2.80;;;6.30;99.90;;;;;;4920470;29;20198;-83
2022/01/17 02:39:13;;;;;;;20.70;3.63;;;6.30;99.90;;;;;;4951770;28;20201;-82
2022/01/17 02:41:40;;;;;;;15.87;2.80;;;6.30;99.90;;;;;;4991539;28;20235;-83
2022/01/17 02:44:08;;;;;;;15.07;2.90;;;6.40;99.90;;;;;;4988149;28;20598;-84
2022/01/17 02:46:34;;;;;;;16.43;3.50;;;6.30;99.90;;;;;;5039606;23;20214;-80
2022/01/17 02:49:04;;;;;;;16.50;3.07;;;6.30;99.90;;;;;;5035119;28;20180;-81
2022/01/17 02:51:30;;;;;;;16.23;3.27;;;6.30;99.90;;;;;;5045713;28;20261;-81
2022/01/17 02:53:57;;;;;;;18.20;3.43;;;6.30;99.90;;;;;;5032267;28;20576;-81
2022/01/17 02:56:26;;;;;;;12.63;2.37;;;6.30;99.90;;;;;;5035028;28;20286;-83
2022/01/17 02:58:52;;;;;;;17.03;3.87;;;6.40;99.90;;;;;;5032264;28;20184;-82
2022/01/17 03:01:27;;;;;;;18.40;2.93;;;6.40;99.90;;;;;;5038823;28;20208;-83
2022/01/17 03:03:54;;;;;;;19.23;2.93;;;6.40;99.90;;;;;;5041807;28;20169;-82
2022/01/17 03:06:20;;;;;;;19.93;3.17;;;6.40;99.90;;;;;;5052125;28;20197;-82
2022/01/17 03:08:46;;;;;;;20.37;3.57;;;6.40;99.90;;;;;;5047905;28;20569;-82
2022/01/17 03:11:17;;;;;;;16.73;2.97;;;6.40;99.90;;;;;;5029743;28;20172;-83
2022/01/17 03:13:43;;;;;;;14.70;3.10;;;6.40;99.90;;;;;;5043812;28;20194;-81
2022/01/17 03:16:17;;;;;;;18.67;3.50;;;6.40;99.90;;;;;;5052709;28;20210;-82
2022/01/17 03:18:52;;;;;;;20.40;3.37;;;6.40;99.90;;;;;;5061835;28;20176;-83
2022/01/17 03:21:20;;;;;;;19.13;3.50;;;6.40;99.90;;;;;;5034196;28;20252;-82
2022/01/17 03:23:47;;;;;;;17.50;2.53;;;6.50;99.90;;;;;;5045076;28;20271;-83
2022/01/17 03:26:13;;;;;;;13.67;2.63;;;6.40;99.90;;;;;;5054913;28;20194;-82
2022/01/17 03:28:39;;;;;;;16.50;3.30;;;6.40;99.90;;;;;;5046073;28;20175;-81
2022/01/17 03:31:07;;;;;;;15.37;3.23;;;6.40;99.90;;;;;;5034435;28;20175;-82
2022/01/17 03:33:33;;;;;;;16.27;3.27;;;6.40;99.90;;;;;;5033401;28;20179;-82
2022/01/17 03:35:59;;;;;;;22.07;3.20;;;6.50;99.90;;;;;;5035689;28;20221;-82
2022/01/17 03:38:31;;;;;;;18.63;3.20;;;6.40;99.90;;;;;;5048567;28;20186;-82
2022/01/17 03:40:59;;;;;;;16.20;2.70;;;6.40;99.90;;;;;;5028572;28;20189;-83
2022/01/17 03:43:25;;;;;;;17.27;2.90;;;6.40;99.90;;;;;;5044376;28;20265;-82
2022/01/17 03:45:52;;;;;;;15.20;3.30;;;6.50;99.90;;;;;;5046822;28;20215;-82
2022/01/17 03:48:23;;;;;;;17.20;3.20;;;6.40;99.90;;;;;;5028385;28;20185;-82
2022/01/17 03:50:52;;;;;;;13.23;2.57;;;6.40;99.90;;;;;;5037859;28;20521;-85
2022/01/17 03:53:30;;;;;;;10.23;2.50;;;6.40;99.90;;;;;;5023975;28;20181;-82
2022/01/17 03:55:57;;;;;;;17.43;2.70;;;6.40;99.90;;;;;;5035661;28;20191;-83
2022/01/17 03:58:27;;;;;;;18.10;2.97;;;6.40;99.90;;;;;;5044428;28;20173;-82
2022/01/17 04:00:56;;;;;;;15.07;3.00;;;6.40;99.90;;;;;;5043390;28;20187;-83
2022/01/17 04:03:23;;;;;;;18.07;3.20;;;6.50;99.90;;;;;;5028241;28;20193;-82
2022/01/17 04:05:50;;;;;;;18.80;3.47;;;6.40;99.90;;;;;;5025550;28;20192;-82
2022/01/17 04:08:26;;;;;;;17.17;3.07;;;6.40;99.90;;;;;;5028085;28;20191;-81
2022/01/17 04:10:52;;;;;;;21.70;3.83;;;6.40;99.90;;;;;;5045768;28;20233;-80
2022/01/17 04:13:18;;;;;;;17.07;2.97;;;6.40;99.90;;;;;;5033004;28;20188;-82
2022/01/17 04:15:44;;;;;;;15.00;3.17;;;6.50;99.90;;;;;;5039255;28;20235;-82
2022/01/17 04:18:11;;;;;;;16.27;3.07;;;6.50;99.90;;;;;;5032688;28;20645;-82
2022/01/17 04:20:38;;;;;;;15.43;2.63;;;6.40;99.90;;;;;;5054189;28;20212;-81
2022/01/17 04:23:07;;;;;;;14.20;3.30;;;6.40;99.90;;;;;;5041687;28;20553;-82
2022/01/17 04:25:36;;;;;;;14.57;3.13;;;6.50;99.90;;;;;;5027301;28;20195;-82
2022/01/17 04:28:03;;;;;;;21.27;3.40;;;6.50;99.90;;;;;;5050883;28;20171;-82
2022/01/17 04:30:30;;;;;;;19.77;3.53;;;6.40;99.90;;;;;;5047647;28;20185;-82
2022/01/17 04:32:57;;;;;;;17.17;3.10;;;6.50;99.90;;;;;;5027351;28;20188;-82
2022/01/17 04:35:25;;;;;;;11.47;2.57;;;6.50;99.90;;;;;;5046009;28;20228;-82
2022/01/17 04:37:54;;;;;;;18.63;3.50;;;6.50;99.90;;;;;;5050382;28;20179;-81
2022/01/17 04:40:20;;;;;;;15.77;2.93;;;6.50;99.90;;;;;;5050301;28;20178;-81
2022/01/17 04:42:48;;;;;;;14.87;3.10;;;6.50;99.90;;;;;;5049097;28;20309;-81
2022/01/17 04:45:17;;;;;;;12.33;3.00;;;6.50;99.90;;;;;;5040725;28;20206;-83
2022/01/17 04:47:49;;;;;;;19.00;3.37;;;6.50;99.90;;;;;;5041089;28;20198;-81
2022/01/17 04:50:26;;;;;;;16.67;2.77;;;6.60;99.90;;;;;;5054752;28;20180;-85
2022/01/17 04:52:57;;;;;;;19.47;3.40;;;6.60;99.90;;;;;;5057799;28;20178;-82
2022/01/17 04:55:28;;;;;;;15.13;3.23;;;6.60;99.90;;;;;;5046245;28;20189;-80
2022/01/17 04:57:57;;;;;;;15.20;2.83;;;6.70;99.90;;;;;;5041522;28;20180;-81
2022/01/17 05:00:26;;;;;;;20.23;3.33;;;6.70;99.90;;;;;;5053952;28;20167;-81
2022/01/17 05:02:52;;;;;;;15.33;3.43;;;6.50;99.90;;;;;;5035316;28;20203;-82
2022/01/17 05:05:18;;;;;;;20.90;3.33;;;6.40;99.90;;;;;;5054006;28;20205;-81
2022/01/17 05:07:44;;;;;;;20.27;3.50;;;6.30;99.90;;;;;;5041366;28;20253;-80
2022/01/17 05:10:15;;;;;;;15.70;2.83;;;6.40;99.90;;;;;;5050874;28;20540;-82
2022/01/17 05:12:41;;;;;;;18.83;3.13;;;6.50;99.90;;;;;;5043339;28;20187;-82
2022/01/17 05:15:17;;;;;;;16.00;3.40;;;6.50;99.90;;;;;;5037222;28;20206;-80
2022/01/17 05:17:55;;;;;;;30.97;4.20;;;6.60;99.90;;;;;;5047542;28;20239;-82
2022/01/17 05:20:21;;;;;;;15.20;2.83;;;6.60;99.90;;;;;;5051989;28;20525;-83
2022/01/17 05:22:50;;;;;;;17.80;3.53;;;6.60;99.90;;;;;;5036789;28;20248;-84
2022/01/17 05:25:16;;;;;;;21.93;3.73;;;6.60;99.90;;;;;;5050514;28;20208;-83
2022/01/17 05:27:42;;;;;;;18.67;3.53;;;6.80;99.90;;;;;;5047743;28;20268;-83
2022/01/17 05:30:14;;;;;;;17.87;3.20;;;6.70;99.90;;;;;;5049589;28;20206;-82
2022/01/17 05:32:40;;;;;;;16.77;3.27;;;6.70;99.90;;;;;;5038898;28;20179;-82
2022/01/17 05:35:06;;;;;;;17.63;3.60;;;6.80;99.90;;;;;;5036628;28;20210;-81
2022/01/17 05:37:32;;;;;;;19.47;3.47;;;6.80;99.90;;;;;;5036759;28;20173;-82
2022/01/17 05:39:57;;;;;;;16.73;3.87;;;6.80;99.90;;;;;;5045139;28;20186;-83
2022/01/17 05:42:27;;;;;;;19.27;3.40;;;6.80;99.90;;;;;;5030142;28;20205;-82
2022/01/17 05:44:53;;;;;;;24.30;3.60;;;6.90;99.90;;;;;;5034111;28;20262;-82
2022/01/17 05:47:19;;;;;;;19.10;3.40;;;6.90;99.90;;;;;;5037653;28;20227;-81
2022/01/17 05:49:50;;;;;;;19.70;3.73;;;6.90;99.90;;;;;;5046276;28;20194;-81
2022/01/17 05:52:16;;;;;;;19.83;3.70;;;6.90;99.90;;;;;;5039557;28;20204;-83
2022/01/17 05:54:44;;;;;;;26.57;3.80;;;6.80;99.90;;;;;;5043748;28;20173;-81
2022/01/17 05:57:11;;;;;;;20.57;4.10;;;6.90;99.90;;;;;;5041241;28;20180;-83
2022/01/17 05:59:40;;;;;;;18.37;3.27;;;6.90;99.90;;;;;;5054199;28;20188;-81
2022/01/17 06:02:10;;;;;;;20.77;3.50;;;6.90;99.90;;;;;;5030384;28;20224;-82
2022/01/17 06:04:36;;;;;;;16.30;3.50;;;6.90;99.90;;;;;;5022737;28;20199;-82
2022/01/17 06:07:04;;;;;;;20.97;4.43;;;6.80;99.90;;;;;;5030623;28;20208;-81
2022/01/17 06:09:35;;;;;;;19.67;3.87;;;6.80;99.90;;;;;;5047452;28;20586;-80
2022/01/17 06:12:06;;;;;;;20.33;3.50;;;6.70;99.90;;;;;;5031714;28;20189;-81
2022/01/17 06:14:38;;;;;;;23.80;3.90;;;6.80;99.90;;;;;;5023671;28;20190;-82
2022/01/17 06:17:05;;;;;;;23.10;4.17;;;6.80;99.90;;;;;;5044371;28;20206;-83
2022/01/17 06:19:33;;;;;;;25.53;3.90;;;6.80;99.90;;;;;;5038975;28;20261;-81
2022/01/17 06:21:59;;;;;;;21.53;3.57;;;6.90;99.90;;;;;;5021458;28;20223;-81
2022/01/17 06:24:25;;;;;;;20.00;3.80;;;6.90;99.90;;;;;;5021415;28;20238;-83
2022/01/17 06:26:52;;;;;;;22.00;3.93;;;6.90;99.90;;;;;;5025490;28;20628;-81
2022/01/17 06:29:21;;;;;;;25.20;3.97;;;6.90;99.90;;;;;;5034209;28;20177;-82
2022/01/17 06:31:47;;;;;;;22.30;4.40;;;6.90;99.90;;;;;;5030459;28;20525;-82
2022/01/17 06:34:13;;;;;;;21.77;4.03;;;6.90;99.90;;;;;;5026130;28;20270;-82
2022/01/17 06:36:41;;;;;;;20.30;3.63;;;6.90;99.90;;;;;;5037968;28;20241;-82
2022/01/17 06:39:11;;;;;;;22.63;4.10;;;6.80;99.90;;;;;;5030451;28;20367;-83
2022/01/17 06:41:39;;;;;;;23.23;3.90;;;6.70;99.90;;;;;;5041837;28;20565;-82
2022/01/17 06:44:05;;;;;;;23.23;4.53;;;6.70;99.90;;;;;;5020920;28;20646;-82
2022/01/17 06:46:31;;;;;;;28.53;4.43;;;6.70;99.90;;;;;;5028893;28;20223;-83
2022/01/17 06:49:09;;;;;;;23.77;4.43;;;6.70;99.90;;;;;;5034852;28;20189;-81
2022/01/17 06:51:45;;;;;;;24.87;4.40;;;6.70;99.90;;;;;;5020119;28;20186;-81
2022/01/17 06:54:12;;;;;;;24.97;4.17;;;6.70;99.90;;;;;;5045200;28;20184;-81
2022/01/17 06:56:43;;;;;;;28.73;4.77;;;6.70;99.90;;;;;;5040898;28;20204;-81
2022/01/17 06:59:12;;;;;;;28.53;5.40;;;6.70;99.90;;;;;;5038550;28;20180;-82
2022/01/17 07:01:41;;;;;;;19.97;4.27;;;6.70;99.90;;;;;;5041932;28;20203;-81
2022/01/17 07:04:08;;;;;;;24.80;4.77;;;6.70;99.90;;;;;;5040902;28;20206;-82
2022/01/17 07:06:34;;;;;;;23.13;3.87;;;6.70;99.90;;;;;;5037764;28;20218;-82
2022/01/17 07:09:05;;;;;;;23.80;4.17;;;6.80;99.90;;;;;;5036459;28;20181;-82
2022/01/17 07:11:38;;;;;;;23.63;5.17;;;6.80;99.90;;;;;;5039990;28;20229;-81
2022/01/17 07:14:06;;;;;;;24.83;4.50;;;6.70;99.90;;;;;;5041249;28;20186;-82
2022/01/17 07:16:38;;;;;;;28.70;4.27;;;6.70;99.90;;;;;;5027036;28;20590;-82
2022/01/17 07:19:04;;;;;;;28.20;4.80;;;6.70;99.90;;;;;;5046830;28;20191;-82
2022/01/17 07:21:40;;;;;;;21.00;4.13;;;6.70;99.90;;;;;;5023859;28;20235;-82
2022/01/17 07:24:07;;;;;;;21.17;4.37;;;6.80;99.90;;;;;;5034364;28;20177;-81
2022/01/17 07:26:35;;;;;;;30.50;4.67;;;6.80;99.90;;;;;;5038177;28;20199;-82
2022/01/17 07:29:02;;;;;;;26.13;4.73;;;6.90;99.90;;;;;;5041255;28;20600;-81
2022/01/17 07:31:28;;;;;;;25.67;4.47;;;6.90;99.90;;;;;;5034989;28;20187;-82
2022/01/17 07:33:55;;;;;;;23.13;4.37;;;6.90;99.90;;;;;;5046045;28;20230;-82
2022/01/17 07:36:21;;;;;;;26.07;4.63;;;6.90;99.90;;;;;;5025393;28;20207;-82
2022/01/17 07:38:51;;;;;;;27.93;4.40;;;6.80;99.90;;;;;;5033878;28;20251;-82
2022/01/17 07:41:17;;;;;;;21.63;4.17;;;6.80;99.90;;;;;;5044633;28;20755;-82
2022/01/17 07:43:43;;;;;;;30.70;5.00;;;6.80;99.90;;;;;;5029028;28;20205;-82
2022/01/17 07:46:24;;;;;;;19.80;4.27;;;6.90;99.90;;;;;;5035932;28;20292;-82
2022/01/17 07:51:31;;;;;;;20.77;4.53;;;7.00;99.90;;;;;;5042611;28;20203;-82
2022/01/17 07:53:57;;;;;;;21.73;3.83;;;7.00;99.90;;;;;;5033570;28;20170;-82
2022/01/17 07:56:26;;;;;;;19.60;3.57;;;6.90;99.90;;;;;;5035117;28;20697;-82
2022/01/17 07:58:52;;;;;;;21.57;3.67;;;6.90;99.90;;;;;;5033722;28;20185;-82
2022/01/17 08:01:19;;;;;;;27.60;4.97;;;7.00;99.90;;;;;;5035826;28;20237;-81
2022/01/17 08:03:51;;;;;;;21.30;3.90;;;6.90;99.90;;;;;;5052039;28;20180;-82
2022/01/17 08:06:17;;;;;;;23.03;3.60;;;6.90;99.90;;;;;;5032818;28;20199;-82
2022/01/17 08:08:43;;;;;;;22.70;4.30;;;6.90;99.90;;;;;;5063563;28;20174;-82
2022/01/17 08:11:10;;;;;;;20.10;4.13;;;6.90;99.90;;;;;;5053377;28;20186;-83
2022/01/17 08:13:36;;;;;;;23.40;4.57;;;6.90;99.90;;;;;;5035272;28;20163;-83
2022/01/17 08:16:02;;;;;;;26.83;4.07;;;6.80;99.90;;;;;;5041139;28;20254;-81
2022/01/17 08:18:29;;;;;;;24.30;4.00;;;6.80;99.90;;;;;;5036401;28;20170;-82
2022/01/17 08:20:55;;;;;;;26.67;4.00;;;6.80;99.90;;;;;;5044019;28;20279;-81
2022/01/17 08:23:21;;;;;;;23.50;4.70;;;6.80;99.90;;;;;;5037252;28;20204;-83
2022/01/17 08:25:47;;;;;;;26.07;5.33;;;6.80;99.90;;;;;;5038411;28;20193;-81
2022/01/17 08:28:13;;;;;;;32.63;5.37;;;6.90;99.90;;;;;;5043354;28;20215;-82
2022/01/17 08:30:39;;;;;;;26.40;4.83;;;6.90;99.90;;;;;;5034147;28;20177;-82
2022/01/17 08:33:05;;;;;;;29.07;4.33;;;6.90;99.90;;;;;;5041855;28;20315;-83
2022/01/17 08:35:31;;;;;;;27.57;4.40;;;6.90;99.90;;;;;;5041475;28;20635;-82
2022/01/17 08:37:57;;;;;;;27.13;4.77;;;7.10;99.90;;;;;;5052187;28;20185;-83
2022/01/17 08:40:23;;;;;;;29.53;4.77;;;7.10;99.90;;;;;;5053044;28;20185;-82
2022/01/17 08:42:49;;;;;;;23.10;4.57;;;7.10;99.90;;;;;;5038921;28;20367;-83
2022/01/17 08:45:17;;;;;;;27.00;4.67;;;7.20;99.90;;;;;;5035223;28;20551;-82
2022/01/17 08:47:46;;;;;;;26.00;5.13;;;7.30;99.90;;;;;;5078708;22;20318;-78
2022/01/17 08:50:13;;;;;;;24.40;4.67;;;7.30;99.90;;;;;;5031704;28;20275;-79
2022/01/17 08:52:38;;;;;;;18.83;4.00;;;7.30;99.90;;;;;;5043696;28;20206;-79
2022/01/17 08:55:16;;;;;;;18.00;3.63;;;7.30;99.90;;;;;;5051349;28;20230;-79
2022/01/17 08:57:42;;;;;;;16.47;3.10;;;7.20;99.90;;;;;;5033401;28;20195;-79
2022/01/17 09:00:14;;;;;;;19.73;3.70;;;7.00;99.90;;;;;;5039898;28;20705;-79
2022/01/17 09:02:40;;;;;;;22.03;4.20;;;7.00;99.90;;;;;;5030698;28;20209;-79
2022/01/17 09:05:06;;;;;;;33.57;5.47;;;7.00;99.90;;;;;;5045501;28;20177;-78
2022/01/17 09:07:37;;;;;;;21.27;4.40;;;7.00;99.90;;;;;;5024775;28;20190;-78
2022/01/17 09:10:06;;;;;;;26.63;5.47;;;7.00;99.90;;;;;;5029168;28;20272;-79
2022/01/17 09:12:32;;;;;;;29.43;5.80;;;7.00;99.90;;;;;;5034825;28;20267;-78
2022/01/17 09:14:59;;;;;;;32.53;5.67;;;7.10;99.90;;;;;;5032528;28;20276;-78
2022/01/17 09:17:24;;;;;;;28.77;5.83;;;7.10;99.90;;;;;;5036893;28;20204;-78
2022/01/17 09:20:11;;;;;;;28.80;4.97;;;7.20;99.90;;;;;;5030801;28;20176;-78
2022/01/17 09:22:37;;;;;;;31.93;5.83;;;7.10;99.90;;;;;;5030029;28;20235;-79
2022/01/17 09:25:06;;;;;;;35.80;6.63;;;7.20;99.90;;;;;;5027707;28;20545;-79
2022/01/17 09:27:32;;;;;;;31.03;5.30;;;7.10;99.90;;;;;;5035372;28;20202;-77
2022/01/17 09:29:58;;;;;;;33.27;5.13;;;7.00;99.90;;;;;;5028589;28;20591;-77
2022/01/17 09:32:24;;;;;;;28.67;5.03;;;7.00;99.90;;;;;;5027364;28;20215;-78
2022/01/17 09:34:50;;;;;;;28.47;5.17;;;7.00;99.90;;;;;;5025249;28;20191;-78
2022/01/17 09:37:15;;;;;;;26.17;4.77;;;7.00;99.90;;;;;;5040472;28;20338;-80
2022/01/17 09:39:42;;;;;;;23.37;4.17;;;7.00;99.90;;;;;;5029724;28;20627;-78
2022/01/17 09:42:09;;;;;;;29.00;4.90;;;7.00;99.90;;;;;;5034715;28;20249;-77
2022/01/17 09:44:36;;;;;;;30.97;5.63;;;7.00;99.90;;;;;;5026523;28;20211;-78
2022/01/17 09:47:07;;;;;;;23.60;4.37;;;7.10;99.90;;;;;;5026277;28;20239;-78
2022/01/17 09:49:37;;;;;;;25.00;4.30;;;7.10;99.90;;;;;;5029405;28;20182;-78
2022/01/17 09:52:34;;;;;;;19.87;4.00;;;7.10;99.90;;;;;;5041020;28;20567;-78
2022/01/17 09:55:24;;;;;;;21.23;3.80;;;7.10;99.90;;;;;;5037869;28;20174;-78
2022/01/17 09:58:06;;;;;;;18.97;3.77;;;7.20;99.90;;;;;;5048718;28;20560;-79
2022/01/17 10:00:40;;;;;;;17.67;3.73;;;7.20;99.90;;;;;;5037373;28;20325;-78
2022/01/17 10:03:16;;;;;;;16.13;3.33;;;7.20;99.90;;;;;;5054769;28;20217;-79
2022/01/17 10:05:46;;;;;;;13.07;3.23;;;7.20;99.90;;;;;;5043379;28;20173;-78
2022/01/17 10:08:17;;;;;;;11.77;2.33;;;7.30;99.90;;;;;;5037151;28;20216;-78
2022/01/17 10:11:00;;;;;;;11.57;2.90;;;7.30;99.90;;;;;;5025379;28;20223;-78
2022/01/17 10:13:32;;;;;;;15.90;2.70;;;7.30;99.90;;;;;;5032490;28;20663;-78
2022/01/17 10:16:11;;;;;;;15.27;2.90;;;7.40;99.90;;;;;;5045501;28;20185;-78
2022/01/17 10:18:39;;;;;;;14.80;2.70;;;7.40;99.90;;;;;;5030573;28;20171;-78
2022/01/17 10:21:26;;;;;;;16.67;2.93;;;7.40;99.90;;;;;;5021842;28;20163;-79
2022/01/17 10:30:08;;;;;;;11.97;2.00;;;7.30;99.90;;;;;;5005851;28;20189;-77
2022/01/17 10:35:35;;;;;;;13.67;2.63;;;7.30;99.90;;;;;;5003927;28;20223;-78
2022/01/17 10:38:39;;;;;;;7.77;1.97;;;7.30;99.90;;;;;;5034164;28;20215;-78
2022/01/17 10:41:07;;;;;;;17.70;2.67;;;7.30;99.90;;;;;;5029420;28;20164;-77
2022/01/17 10:43:35;;;;;;;9.37;2.27;;;7.30;99.90;;;;;;5035069;28;20201;-79
2022/01/17 10:46:06;;;;;;;11.87;2.50;;;7.40;99.90;;;;;;5035904;28;20186;-78
2022/01/17 10:48:35;;;;;;;13.27;2.63;;;7.30;99.90;;;;;;5030728;28;20169;-80
2022/01/17 10:51:04;;;;;;;12.03;2.40;;;7.40;99.90;;;;;;5023949;28;20185;-80
2022/01/17 10:53:37;;;;;;;20.87;3.00;;;7.40;99.90;;;;;;5028732;28;20184;-79
2022/01/17 10:56:08;;;;;;;10.03;2.57;;;7.30;99.90;;;;;;5029514;28;20224;-81
2022/01/17 10:58:37;;;;;;;16.37;2.80;;;7.30;99.90;;;;;;5036196;28;20242;-80
2022/01/17 11:01:15;;;;;;;14.13;2.30;;;7.30;99.90;;;;;;5038854;28;20592;-79
2022/01/17 11:03:42;;;;;;;18.93;3.00;;;7.30;99.90;;;;;;5040523;28;20271;-79
2022/01/17 11:06:12;;;;;;;16.10;3.23;;;7.30;99.90;;;;;;5047139;28;20177;-79
2022/01/17 11:08:48;;;;;;;14.73;2.67;;;7.40;99.90;;;;;;5036994;28;20211;-80
2022/01/17 11:11:22;;;;;;;12.03;2.30;;;7.30;99.90;;;;;;5023276;28;20655;-79
2022/01/17 11:13:49;;;;;;;14.77;2.60;;;7.00;99.90;;;;;;5030949;28;20171;-80
2022/01/17 11:16:18;;;;;;;11.03;2.67;;;6.70;99.90;;;;;;5043844;28;20193;-79
2022/01/17 11:18:57;;;;;;;11.13;2.37;;;6.40;99.90;;;;;;5030639;28;20180;-79
2022/01/17 11:21:25;;;;;;;12.30;2.60;;;6.10;99.90;;;;;;5028085;28;20611;-79
2022/01/17 11:24:11;;;;;;;13.67;2.90;;;5.90;99.90;;;;;;5036664;28;20629;-78
2022/01/17 11:26:42;;;;;;;15.70;2.80;;;5.70;99.90;;;;;;5036418;28;20201;-79
2022/01/17 11:29:20;;;;;;;10.03;2.83;;;5.50;99.90;;;;;;5018997;28;20190;-79
2022/01/17 11:31:46;;;;;;;12.43;2.80;;;5.40;99.90;;;;;;5032042;28;20180;-78
2022/01/17 11:34:14;;;;;;;16.67;3.33;;;5.30;99.90;;;;;;5031120;28;20231;-79
2022/01/17 11:36:40;;;;;;;11.37;2.30;;;5.30;99.90;;;;;;5034475;28;20201;-80
2022/01/17 11:39:16;;;;;;;13.47;2.67;;;5.40;99.90;;;;;;5041896;28;20177;-78
2022/01/17 11:41:48;;;;;;;13.40;2.70;;;5.40;99.90;;;;;;5027536;28;20198;-78
2022/01/17 11:44:14;;;;;;;14.17;2.90;;;5.60;99.90;;;;;;5030132;28;20173;-79
2022/01/17 11:46:51;;;;;;;17.07;3.30;;;5.60;99.90;;;;;;5032377;28;20214;-79
2022/01/17 11:49:31;;;;;;;20.17;3.33;;;5.80;99.90;;;;;;5029646;28;20178;-78
2022/01/17 11:52:00;;;;;;;16.63;2.87;;;5.90;99.90;;;;;;5025792;28;20179;-79
2022/01/17 11:54:28;;;;;;;18.97;3.47;;;6.00;99.90;;;;;;5021644;28;20261;-80
2022/01/17 11:57:05;;;;;;;20.40;3.33;;;6.00;99.90;;;;;;5042559;28;20196;-79
2022/01/17 11:59:45;;;;;;;20.57;4.10;;;6.20;99.90;;;;;;5029620;28;20236;-79
2022/01/17 12:02:28;;;;;;;20.77;4.17;;;6.20;99.90;;;;;;5028413;28;20210;-78
2022/01/17 12:05:17;;;;;;;27.93;4.17;;;6.30;99.90;;;;;;5025594;28;20203;-79
2022/01/17 12:07:49;;;;;;;15.07;3.20;;;6.40;99.90;;;;;;5033250;28;20214;-78
2022/01/17 12:10:20;;;;;;;24.40;3.83;;;6.40;99.90;;;;;;5037381;28;20626;-78
2022/01/17 12:13:23;;;;;;;12.10;3.73;;;6.40;99.90;;;;;;5032723;28;20207;-80
2022/01/17 12:15:54;;;;;;;21.67;3.80;;;6.50;99.90;;;;;;5031847;28;20185;-79
2022/01/17 12:19:05;;;;;;;21.13;4.50;;;6.50;99.90;;;;;;5025792;28;20172;-78
2022/01/17 12:21:36;;;;;;;22.27;4.17;;;6.50;99.90;;;;;;5026693;28;20241;-79
2022/01/17 12:24:14;;;;;;;23.10;3.93;;;6.60;99.90;;;;;;5031296;28;20189;-79
2022/01/17 12:26:40;;;;;;;32.50;4.33;;;6.60;99.90;;;;;;5031683;28;20555;-79
2022/01/17 12:29:06;;;;;;;21.57;4.10;;;6.50;99.90;;;;;;5030782;28;20645;-78
2022/01/17 12:31:46;;;;;;;21.63;4.10;;;6.50;99.90;;;;;;5031473;28;20198;-79
2022/01/17 12:34:23;;;;;;;26.83;5.30;;;6.40;99.90;;;;;;5039600;28;20630;-79
2022/01/17 12:36:50;;;;;;;19.03;4.20;;;6.50;99.90;;;;;;5038816;28;20207;-79
2022/01/17 12:39:21;;;;;;;24.47;4.43;;;6.60;99.90;;;;;;5029664;28;20173;-78
2022/01/17 12:41:48;;;;;;;26.47;4.53;;;6.60;99.90;;;;;;5039196;28;20594;-80
2022/01/17 12:44:29;;;;;;;24.27;4.40;;;6.80;99.90;;;;;;5040924;28;20167;-80
2022/01/17 12:46:58;;;;;;;25.13;4.93;;;6.90;99.90;;;;;;5050529;28;20234;-78
2022/01/17 12:49:26;;;;;;;21.00;4.70;;;6.90;99.90;;;;;;5030894;28;20178;-79
2022/01/17 12:51:54;;;;;;;25.50;4.93;;;6.90;99.90;;;;;;5034269;28;20175;-79
2022/01/17 12:54:25;;;;;;;28.57;4.70;;;6.80;99.90;;;;;;5033274;28;20185;-79
2022/01/17 12:56:55;;;;;;;31.13;4.70;;;6.70;99.90;;;;;;5037653;28;20196;-80
2022/01/17 12:59:21;;;;;;;27.27;4.90;;;6.60;99.90;;;;;;5040425;28;20183;-79
2022/01/17 13:01:54;;;;;;;17.67;4.03;;;6.60;99.90;;;;;;5029444;28;20607;-78
2022/01/17 13:04:30;;;;;;;28.77;4.37;;;6.50;99.90;;;;;;5033290;28;20175;-79
2022/01/17 13:07:02;;;;;;;23.73;4.23;;;6.50;99.90;;;;;;5026538;28;20197;-78
2022/01/17 13:09:36;;;;;;;19.70;4.60;;;6.50;99.90;;;;;;5032502;28;20679;-79
2022/01/17 13:12:07;;;;;;;24.20;4.50;;;6.40;99.90;;;;;;5033608;28;20208;-79
2022/01/17 13:14:34;;;;;;;28.53;5.03;;;6.40;99.90;;;;;;5029234;28;20187;-80
2022/01/17 13:16:59;;;;;;;22.17;4.40;;;6.30;99.90;;;;;;5027783;28;20287;-80
2022/01/17 13:19:25;;;;;;;20.80;4.77;;;6.40;99.90;;;;;;5042612;28;20184;-78
2022/01/17 13:21:51;;;;;;;25.43;3.90;;;6.40;99.90;;;;;;5033824;28;20201;-78
2022/01/17 13:24:34;;;;;;;22.30;4.40;;;6.40;99.90;;;;;;5032262;28;20180;-79
2022/01/17 13:27:09;;;;;;;20.07;4.47;;;6.40;99.90;;;;;;5032819;28;20188;-79
2022/01/17 13:29:40;;;;;;;25.93;4.87;;;6.40;99.90;;;;;;5039080;28;20170;-79
2022/01/17 13:32:11;;;;;;;24.63;4.73;;;6.30;99.90;;;;;;5023056;28;20176;-78
2022/01/17 13:34:39;;;;;;;23.33;4.47;;;6.40;99.90;;;;;;5035464;28;20189;-78
2022/01/17 13:37:15;;;;;;;22.33;5.03;;;6.40;99.90;;;;;;5023822;28;20647;-78
2022/01/17 13:39:41;;;;;;;25.23;5.00;;;6.40;99.90;;;;;;5039798;28;20252;-78
2022/01/17 13:42:07;;;;;;;22.67;4.23;;;6.30;99.90;;;;;;5033145;28;20293;-79
2022/01/17 13:44:38;;;;;;;26.73;5.20;;;6.30;99.90;;;;;;5037375;28;20661;-79
2022/01/17 13:47:10;;;;;;;21.37;4.27;;;6.20;99.90;;;;;;5035699;28;20209;-79
2022/01/17 13:49:49;;;;;;;25.10;4.80;;;6.30;99.90;;;;;;5027464;28;20181;-77
2022/01/17 13:52:18;;;;;;;23.90;4.63;;;6.30;99.90;;;;;;5026352;28;20171;-78
2022/01/17 13:54:51;;;;;;;33.37;4.87;;;6.30;99.90;;;;;;5030435;28;20190;-78
2022/01/17 13:57:29;;;;;;;23.97;4.83;;;6.20;99.90;;;;;;5045962;28;20547;-78
2022/01/17 14:00:04;;;;;;;30.47;4.93;;;6.20;99.90;;;;;;5044268;28;20186;-78
2022/01/17 14:02:45;;;;;;;24.70;5.30;;;6.20;99.90;;;;;;5030988;28;20270;-78
2022/01/17 14:05:33;;;;;;;35.10;5.87;;;6.10;99.90;;;;;;5023934;28;20176;-79
2022/01/17 14:08:14;;;;;;;21.33;4.73;;;6.10;99.90;;;;;;5018884;28;20197;-78
2022/01/17 14:10:50;;;;;;;22.73;4.47;;;6.10;99.90;;;;;;5021354;28;20266;-79
2022/01/17 14:13:20;;;;;;;19.30;4.80;;;6.10;99.90;;;;;;5014675;28;20266;-78
2022/01/17 14:15:47;;;;;;;25.07;4.60;;;6.20;99.90;;;;;;5041735;28;20204;-78
2022/01/17 14:18:14;;;;;;;26.07;5.00;;;6.20;99.90;;;;;;5035071;28;20281;-78
2022/01/17 14:20:56;;;;;;;25.80;4.83;;;6.20;99.90;;;;;;5037288;28;20544;-77
2022/01/17 14:23:35;;;;;;;29.33;5.27;;;6.10;99.90;;;;;;5031073;28;20204;-79
2022/01/17 14:26:27;;;;;;;26.53;5.80;;;6.00;99.90;;;;;;5023998;28;20271;-79
2022/01/17 14:28:56;;;;;;;26.33;5.53;;;5.90;99.90;;;;;;5031240;28;20649;-79
2022/01/17 14:31:21;;;;;;;25.63;5.33;;;5.90;99.90;;;;;;5026553;28;20181;-78
2022/01/17 14:34:24;;;;;;;31.47;5.67;;;5.90;99.90;;;;;;5024385;28;20179;-79
2022/01/17 14:37:36;;;;;;;26.13;5.17;;;5.80;99.90;;;;;;5031531;28;20203;-78
2022/01/17 14:40:14;;;;;;;20.77;5.07;;;5.80;99.90;;;;;;5017613;28;20189;-78
2022/01/17 14:42:42;;;;;;;29.50;5.37;;;5.70;99.90;;;;;;5035089;28;20224;-77
2022/01/17 14:45:14;;;;;;;21.97;4.23;;;5.80;99.90;;;;;;5025303;28;20193;-77
2022/01/17 14:47:42;;;;;;;24.03;5.13;;;5.80;99.90;;;;;;5039761;28;20690;-80
2022/01/17 14:50:21;;;;;;;21.87;5.53;;;5.70;99.90;;;;;;5034953;23;20232;-84
2022/01/17 14:52:54;;;;;;;27.50;5.33;;;5.70;99.90;;;;;;5029551;28;20203;-82
2022/01/17 15:00:55;;;;;;;31.97;5.17;;;5.50;99.90;;;;;;5048424;28;20178;-82
2022/01/17 15:03:28;;;;;;;24.60;4.70;;;5.40;99.90;;;;;;5023202;28;20202;-82
2022/01/17 15:05:55;;;;;;;25.57;5.50;;;5.40;99.90;;;;;;5022175;28;20171;-84
2022/01/17 15:08:21;;;;;;;23.40;4.83;;;5.40;99.90;;;;;;5031060;28;20219;-84
2022/01/17 15:10:48;;;;;;;24.37;4.80;;;5.50;99.90;;;;;;5030055;28;20175;-84
2022/01/17 15:13:14;;;;;;;33.10;5.33;;;5.40;99.90;;;;;;5021256;28;20521;-84
2022/01/17 15:15:57;;;;;;;26.60;5.30;;;5.40;99.90;;;;;;5021963;28;20226;-87